createdAt,value
2018-06-16T00:01:16.539Z,20.40
2018-06-16T00:03:44.718Z,25.20
2018-06-16T00:06:12.783Z,27.03
2018-06-16T00:08:40.855Z,23.27
2018-06-16T00:11:08.959Z,25.07
2018-06-16T00:13:37.030Z,25.30
2018-06-16T00:16:05.139Z,30.00
2018-06-16T00:18:33.234Z,22.23
2018-06-16T00:21:01.338Z,23.80
2018-06-16T00:23:29.422Z,24.97
2018-06-16T00:25:57.559Z,22.00
2018-06-16T00:28:25.645Z,23.33
2018-06-16T00:30:53.814Z,22.30
2018-06-16T00:33:21.886Z,24.17
2018-06-16T00:35:49.960Z,24.70
2018-06-16T00:38:18.040Z,25.23
2018-06-16T00:40:46.131Z,26.07
2018-06-16T00:43:14.211Z,26.00
2018-06-16T00:45:42.270Z,28.37
2018-06-16T00:48:10.371Z,22.10
2018-06-16T00:50:38.430Z,23.40
2018-06-16T00:53:06.518Z,19.67
2018-06-16T00:55:34.610Z,23.23
2018-06-16T00:58:02.685Z,18.60
2018-06-16T01:00:30.755Z,22.27
2018-06-16T01:02:58.831Z,27.07
2018-06-16T01:05:26.922Z,23.20
2018-06-16T01:07:54.986Z,27.47
2018-06-16T01:10:23.106Z,23.27
2018-06-16T01:12:51.170Z,25.57
2018-06-16T01:15:19.235Z,24.93
2018-06-16T01:17:47.342Z,20.97
2018-06-16T01:20:15.422Z,23.37
2018-06-16T01:22:43.485Z,19.03
2018-06-16T01:25:11.430Z,21.85
2018-06-16T01:27:39.559Z,19.03
2018-06-16T01:30:07.638Z,24.60
2018-06-16T01:32:35.719Z,20.13
2018-06-16T01:35:03.794Z,22.30
2018-06-16T01:37:31.870Z,21.03
2018-06-16T01:39:59.955Z,22.13
2018-06-16T01:42:28.034Z,25.87
2018-06-16T01:44:56.117Z,22.13
2018-06-16T01:47:24.191Z,18.60
2018-06-16T01:49:52.290Z,18.87
2018-06-16T01:52:20.386Z,18.13
2018-06-16T01:54:48.538Z,21.67
2018-06-16T01:57:16.634Z,22.90
2018-06-16T01:59:44.715Z,22.17
2018-06-16T02:02:12.796Z,25.63
2018-06-16T02:04:40.876Z,19.93
2018-06-16T02:07:08.959Z,25.23
2018-06-16T02:09:37.025Z,23.03
2018-06-16T02:12:05.107Z,24.47
2018-06-16T02:14:33.182Z,20.17
2018-06-16T02:17:01.301Z,26.02
2018-06-16T02:19:29.354Z,23.93
2018-06-16T02:21:57.428Z,23.23
2018-06-16T02:24:25.494Z,26.20
2018-06-16T02:26:54.218Z,24.07
2018-06-16T02:29:22.326Z,26.87
2018-06-16T02:31:50.410Z,21.90
2018-06-16T02:34:18.532Z,21.77
2018-06-16T02:36:46.617Z,25.37
2018-06-16T02:39:14.697Z,24.73
2018-06-16T02:41:42.782Z,22.83
2018-06-16T02:44:10.875Z,27.17
2018-06-16T02:46:38.942Z,27.83
2018-06-16T02:49:07.014Z,26.53
2018-06-16T02:51:35.119Z,26.77
2018-06-16T02:54:03.182Z,20.67
2018-06-16T02:56:31.264Z,24.30
2018-06-16T02:58:59.337Z,25.03
2018-06-16T03:01:27.419Z,29.50
2018-06-16T03:03:55.490Z,26.03
2018-06-16T03:06:23.576Z,26.60
2018-06-16T03:08:51.642Z,21.50
2018-06-16T03:11:19.735Z,22.93
2018-06-16T03:13:47.820Z,21.27
2018-06-16T03:16:15.906Z,23.73
2018-06-16T03:18:44.028Z,23.20
2018-06-16T03:21:12.130Z,18.40
2018-06-16T03:23:40.218Z,22.43
2018-06-16T03:26:08.314Z,21.20
2018-06-16T03:28:36.670Z,18.20
2018-06-16T03:31:04.746Z,17.13
2018-06-16T03:33:32.864Z,18.57
2018-06-16T03:36:00.960Z,18.43
2018-06-16T03:38:29.098Z,17.67
2018-06-16T03:40:57.290Z,22.17
2018-06-16T03:43:25.478Z,16.93
2018-06-16T03:45:53.660Z,16.60
2018-06-16T03:48:21.784Z,15.80
2018-06-16T03:50:49.855Z,18.57
2018-06-16T03:53:17.922Z,18.37
2018-06-16T03:55:45.994Z,20.83
2018-06-16T03:58:14.080Z,22.00
2018-06-16T04:00:42.184Z,17.60
2018-06-16T04:03:10.284Z,19.57
2018-06-16T04:05:38.374Z,17.40
2018-06-16T04:08:07.395Z,17.57
2018-06-16T04:10:35.465Z,16.70
2018-06-16T04:13:03.550Z,18.00
2018-06-16T04:15:31.632Z,18.37
2018-06-16T04:17:59.703Z,16.03
2018-06-16T04:20:27.777Z,19.43
2018-06-16T04:22:55.848Z,20.83
2018-06-16T04:25:23.950Z,18.50
2018-06-16T04:27:52.066Z,17.43
2018-06-16T04:30:20.142Z,21.37
2018-06-16T04:32:48.222Z,22.67
2018-06-16T04:35:16.311Z,25.63
2018-06-16T04:37:44.405Z,30.17
2018-06-16T04:40:12.487Z,33.57
2018-06-16T04:42:40.650Z,31.23
2018-06-16T04:45:08.743Z,31.77
2018-06-16T04:47:36.839Z,27.87
2018-06-16T04:50:04.927Z,33.43
2018-06-16T04:52:33.019Z,35.43
2018-06-16T04:55:01.116Z,35.77
2018-06-16T04:57:29.217Z,29.47
2018-06-16T04:59:57.304Z,34.70
2018-06-16T05:02:25.422Z,28.17
2018-06-16T05:04:53.527Z,33.90
2018-06-16T05:07:21.623Z,27.57
2018-06-16T05:09:49.694Z,31.60
2018-06-16T05:12:17.774Z,30.57
2018-06-16T05:14:45.862Z,30.73
2018-06-16T05:17:13.949Z,34.23
2018-06-16T05:19:42.008Z,29.70
2018-06-16T05:22:10.232Z,27.83
2018-06-16T05:24:38.432Z,29.37
2018-06-16T05:27:06.555Z,28.30
2018-06-16T05:29:34.718Z,36.60
2018-06-16T05:32:02.803Z,36.53
2018-06-16T05:34:30.926Z,27.73
2018-06-16T05:36:59.016Z,29.55
2018-06-16T05:39:27.127Z,27.80
2018-06-16T05:41:54.982Z,29.70
2018-06-16T05:44:23.074Z,35.87
2018-06-16T05:46:51.150Z,30.40
2018-06-16T05:49:19.077Z,25.70
2018-06-16T05:51:47.322Z,25.30
2018-06-16T05:54:15.394Z,26.53
2018-06-16T05:56:43.997Z,29.67
2018-06-16T05:59:12.088Z,23.40
2018-06-16T06:01:40.159Z,24.03
2018-06-16T06:04:08.306Z,25.90
2018-06-16T06:06:36.502Z,27.20
2018-06-16T06:09:06.470Z,23.83
2018-06-16T06:11:34.598Z,24.87
2018-06-16T06:14:02.666Z,27.47
2018-06-16T06:16:30.755Z,21.87
2018-06-16T06:18:58.826Z,31.37
2018-06-16T06:21:26.950Z,32.70
2018-06-16T06:23:55.056Z,27.73
2018-06-16T06:26:23.208Z,25.77
2018-06-16T06:28:51.318Z,25.07
2018-06-16T06:31:19.444Z,28.42
2018-06-16T06:33:47.558Z,24.47
2018-06-16T06:36:15.631Z,33.45
2018-06-16T06:38:43.710Z,29.27
2018-06-16T06:41:11.801Z,29.90
2018-06-16T06:43:39.879Z,28.13
2018-06-16T06:46:07.973Z,26.60
2018-06-16T06:48:36.042Z,30.23
2018-06-16T06:51:04.162Z,29.23
2018-06-16T06:53:32.263Z,31.57
2018-06-16T06:56:00.344Z,25.23
2018-06-16T06:58:28.471Z,26.03
2018-06-16T07:00:56.558Z,31.40
2018-06-16T07:03:24.658Z,24.45
2018-06-16T07:05:52.794Z,26.30
2018-06-16T07:08:21.055Z,26.15
2018-06-16T07:10:49.169Z,23.38
2018-06-16T07:13:17.234Z,34.58
2018-06-16T07:15:45.315Z,32.98
2018-06-16T07:18:13.434Z,26.90
2018-06-16T07:20:41.610Z,27.05
2018-06-16T07:23:09.680Z,29.30
2018-06-16T07:25:37.775Z,26.57
2018-06-16T07:28:05.838Z,22.13
2018-06-16T07:30:33.918Z,19.17
2018-06-16T07:33:01.997Z,21.85
2018-06-16T07:35:30.073Z,26.62
2018-06-16T07:37:58.165Z,22.62
2018-06-16T07:40:26.251Z,19.67
2018-06-16T07:42:55.100Z,18.60
2018-06-16T07:45:23.186Z,24.57
2018-06-16T07:47:51.263Z,20.10
2018-06-16T07:50:19.345Z,22.70
2018-06-16T07:52:47.424Z,19.87
2018-06-16T07:55:15.566Z,19.52
2018-06-16T07:57:43.809Z,23.47
2018-06-16T08:00:11.878Z,20.70
2018-06-16T08:02:39.955Z,20.15
2018-06-16T08:05:08.449Z,19.75
2018-06-16T08:07:36.535Z,23.75
2018-06-16T08:10:04.611Z,20.30
2018-06-16T08:12:32.470Z,24.55
2018-06-16T08:15:00.543Z,18.17
2018-06-16T08:17:28.608Z,18.65
2018-06-16T08:19:56.691Z,18.52
2018-06-16T08:22:24.783Z,15.18
2018-06-16T08:24:54.346Z,20.55
2018-06-16T08:27:22.423Z,16.02
2018-06-16T08:29:50.550Z,17.25
2018-06-16T08:32:18.893Z,23.00
2018-06-16T08:34:47.191Z,19.30
2018-06-16T08:37:15.278Z,21.00
2018-06-16T08:39:43.363Z,14.20
2018-06-16T08:42:11.446Z,20.72
2018-06-16T08:44:39.538Z,16.20
2018-06-16T08:47:07.669Z,19.40
2018-06-16T08:49:35.967Z,15.60
2018-06-16T08:52:04.191Z,19.45
2018-06-16T08:54:32.279Z,17.42
2018-06-16T08:57:00.395Z,15.88
2018-06-16T08:59:28.538Z,13.45
2018-06-16T09:01:56.855Z,13.18
2018-06-16T09:04:24.927Z,14.98
2018-06-16T09:06:53.031Z,13.70
2018-06-16T09:09:21.116Z,15.17
2018-06-16T09:11:49.319Z,13.65
2018-06-16T09:14:17.458Z,11.70
2018-06-16T09:16:45.974Z,11.95
2018-06-16T09:19:14.076Z,16.50
2018-06-16T09:21:42.178Z,11.90
2018-06-16T09:24:10.258Z,14.55
2018-06-16T09:26:38.791Z,13.20
2018-06-16T09:29:06.875Z,13.75
2018-06-16T09:31:34.957Z,12.73
2018-06-16T09:34:03.036Z,11.85
2018-06-16T09:36:31.119Z,13.90
2018-06-16T09:38:59.218Z,15.30
2018-06-16T09:41:27.394Z,14.38
2018-06-16T09:43:55.466Z,16.05
2018-06-16T09:46:23.806Z,12.60
2018-06-16T09:48:51.930Z,13.45
2018-06-16T09:51:20.011Z,14.87
2018-06-16T09:53:48.091Z,14.03
2018-06-16T09:56:16.181Z,11.68
2018-06-16T09:58:44.271Z,8.38
2018-06-16T10:01:12.357Z,8.28
2018-06-16T10:03:40.271Z,8.35
2018-06-16T10:06:08.367Z,8.45
2018-06-16T10:08:36.434Z,10.72
2018-06-16T10:11:04.503Z,13.08
2018-06-16T10:13:32.789Z,8.60
2018-06-16T10:16:00.858Z,9.60
2018-06-16T10:18:28.910Z,8.10
2018-06-16T10:20:57.001Z,10.08
2018-06-16T10:23:25.074Z,9.68
2018-06-16T10:25:53.145Z,13.88
2018-06-16T10:28:21.203Z,8.25
2018-06-16T10:30:49.284Z,5.60
2018-06-16T10:33:17.378Z,5.62
2018-06-16T10:35:45.275Z,8.10
2018-06-16T10:38:13.383Z,7.00
2018-06-16T10:40:41.423Z,5.95
2018-06-16T10:43:09.493Z,8.03
2018-06-16T10:45:37.572Z,4.83
2018-06-16T10:48:05.694Z,10.48
2018-06-16T10:50:33.768Z,8.10
2018-06-16T10:53:01.855Z,7.62
2018-06-16T10:55:29.927Z,4.83
2018-06-16T10:57:58.010Z,6.78
2018-06-16T11:00:26.180Z,8.45
2018-06-16T11:02:54.237Z,7.00
2018-06-16T11:05:22.314Z,6.90
2018-06-16T11:07:50.411Z,4.45
2018-06-16T11:10:18.506Z,7.40
2018-06-16T11:12:46.644Z,4.85
2018-06-16T11:15:14.710Z,6.67
2018-06-16T11:17:42.959Z,3.87
2018-06-16T11:20:11.016Z,4.10
2018-06-16T11:22:39.103Z,3.02
2018-06-16T11:25:07.181Z,6.08
2018-06-16T11:27:35.250Z,4.20
2018-06-16T11:30:03.336Z,5.67
2018-06-16T11:32:31.411Z,2.42
2018-06-16T11:34:59.490Z,6.30
2018-06-16T11:37:27.546Z,4.78
2018-06-16T11:39:55.627Z,8.93
2018-06-16T11:42:23.721Z,4.83
2018-06-16T11:44:52.067Z,6.08
2018-06-16T11:47:20.173Z,7.08
2018-06-16T11:49:48.263Z,6.30
2018-06-16T11:52:16.335Z,7.22
2018-06-16T11:54:44.420Z,7.37
2018-06-16T11:57:12.463Z,6.30
2018-06-16T11:59:40.559Z,4.08
2018-06-16T12:02:08.692Z,5.78
2018-06-16T12:04:36.815Z,5.15
2018-06-16T12:07:05.050Z,9.40
2018-06-16T12:09:33.098Z,9.15
2018-06-16T12:12:01.206Z,7.28
2018-06-16T12:14:29.275Z,7.60
2018-06-16T12:16:57.338Z,6.65
2018-06-16T12:19:25.413Z,4.47
2018-06-16T12:21:53.491Z,7.85
2018-06-16T12:24:21.562Z,6.60
2018-06-16T12:26:49.748Z,5.28
2018-06-16T12:29:18.130Z,8.43
2018-06-16T12:31:46.211Z,6.12
2018-06-16T12:34:14.300Z,7.35
2018-06-16T12:36:42.390Z,9.63
2018-06-16T12:39:11.277Z,8.13
2018-06-16T12:41:39.358Z,6.42
2018-06-16T12:44:07.587Z,4.50
2018-06-16T12:46:35.766Z,6.80
2018-06-16T12:49:03.851Z,6.37
2018-06-16T12:51:31.979Z,6.55
2018-06-16T12:54:00.155Z,4.62
2018-06-16T12:56:28.283Z,6.85
2018-06-16T12:58:56.279Z,8.03
2018-06-16T13:01:24.376Z,5.12
2018-06-16T13:03:52.454Z,6.30
2018-06-16T13:06:20.522Z,4.22
2018-06-16T13:08:48.621Z,9.53
2018-06-16T13:11:16.680Z,5.65
2018-06-16T13:13:44.782Z,7.10
2018-06-16T13:16:12.844Z,7.25
2018-06-16T13:18:40.910Z,11.45
2018-06-16T13:21:08.984Z,8.68
2018-06-16T13:23:37.062Z,8.13
2018-06-16T13:26:05.168Z,10.63
2018-06-16T13:28:33.255Z,8.58
2018-06-16T13:31:01.335Z,7.25
2018-06-16T13:33:29.411Z,10.03
2018-06-16T13:35:57.487Z,5.78
2018-06-16T13:38:25.564Z,8.95
2018-06-16T13:40:53.723Z,9.68
2018-06-16T13:43:21.815Z,9.18
2018-06-16T13:45:50.426Z,9.68
2018-06-16T13:48:18.497Z,11.60
2018-06-16T13:50:46.615Z,9.43
2018-06-16T13:53:14.658Z,12.95
2018-06-16T13:55:42.783Z,11.63
2018-06-16T13:58:10.836Z,16.05
2018-06-16T14:00:38.908Z,12.47
2018-06-16T14:03:06.987Z,13.83
2018-06-16T14:05:35.058Z,14.10
2018-06-16T14:08:03.141Z,12.15
2018-06-16T14:10:31.207Z,15.72
2018-06-16T14:12:59.335Z,15.53
2018-06-16T14:15:27.470Z,12.13
2018-06-16T14:17:55.543Z,16.95
2018-06-16T14:20:23.626Z,14.83
2018-06-16T14:22:51.926Z,13.28
2018-06-16T14:25:19.990Z,11.30
2018-06-16T14:27:48.072Z,11.83
2018-06-16T14:30:16.145Z,13.15
2018-06-16T14:32:44.333Z,14.03
2018-06-16T14:35:12.442Z,11.10
2018-06-16T14:37:40.558Z,14.90
2018-06-16T14:40:08.642Z,17.23
2018-06-16T14:42:36.711Z,15.60
2018-06-16T14:45:04.943Z,12.25
2018-06-16T14:47:33.303Z,12.55
2018-06-16T14:50:01.598Z,14.63
2018-06-16T14:52:29.706Z,14.78
2018-06-16T14:54:57.795Z,13.08
2018-06-16T14:57:25.835Z,13.85
2018-06-16T14:59:53.899Z,14.85
2018-06-16T15:02:21.967Z,11.12
2018-06-16T15:04:50.113Z,13.13
2018-06-16T15:07:18.115Z,13.98
2018-06-16T15:09:46.210Z,14.63
2018-06-16T15:12:14.317Z,14.07
2018-06-16T15:14:42.402Z,18.15
2018-06-16T15:17:10.499Z,20.37
2018-06-16T15:19:38.563Z,13.55
2018-06-16T15:22:06.719Z,17.12
2018-06-16T15:24:34.796Z,17.48
2018-06-16T15:27:02.903Z,15.75
2018-06-16T15:29:30.989Z,19.45
2018-06-16T15:31:59.084Z,13.30
2018-06-16T15:34:27.199Z,15.13
2018-06-16T15:36:55.275Z,15.85
2018-06-16T15:39:23.433Z,17.00
2018-06-16T15:41:51.448Z,14.23
2018-06-16T15:44:19.530Z,14.78
2018-06-16T15:46:47.700Z,17.12
2018-06-16T15:49:15.743Z,12.18
2018-06-16T15:51:43.833Z,13.10
2018-06-16T15:54:11.960Z,12.07
2018-06-16T15:56:40.100Z,15.93
2018-06-16T15:59:08.207Z,14.23
2018-06-16T16:01:36.279Z,17.00
2018-06-16T16:04:04.437Z,8.65
2018-06-16T16:06:32.513Z,11.68
2018-06-16T16:09:00.608Z,8.48
2018-06-16T16:11:28.698Z,11.70
2018-06-16T16:13:56.791Z,12.68
2018-06-16T16:16:24.902Z,12.53
2018-06-16T16:18:52.981Z,12.25
2018-06-16T16:21:21.058Z,13.05
2018-06-16T16:23:49.166Z,7.95
2018-06-16T16:26:17.288Z,8.98
2018-06-16T16:28:45.346Z,8.40
2018-06-16T16:31:13.494Z,9.45
2018-06-16T16:33:41.583Z,10.65
2018-06-16T16:36:09.683Z,12.45
2018-06-16T16:38:37.764Z,9.65
2018-06-16T16:41:06.026Z,8.45
2018-06-16T16:43:34.141Z,8.73
2018-06-16T16:46:02.314Z,11.25
2018-06-16T16:48:30.678Z,10.72
2018-06-16T16:51:00.022Z,8.08
2018-06-16T16:53:28.122Z,9.80
2018-06-16T16:55:56.311Z,12.15
2018-06-16T16:58:24.413Z,13.68
2018-06-16T17:00:52.548Z,14.83
2018-06-16T17:03:20.628Z,7.90
2018-06-16T17:05:48.719Z,12.73
2018-06-16T17:08:16.914Z,14.20
2018-06-16T17:10:45.017Z,12.25
2018-06-16T17:13:13.086Z,12.37
2018-06-16T17:15:41.218Z,8.88
2018-06-16T17:18:09.285Z,11.20
2018-06-16T17:20:37.350Z,10.20
2018-06-16T17:23:05.459Z,11.38
2018-06-16T17:25:33.519Z,8.25
2018-06-16T17:28:01.591Z,9.45
2018-06-16T17:30:29.658Z,9.80
2018-06-16T17:32:57.902Z,9.08
2018-06-16T17:35:26.007Z,8.30
2018-06-16T17:37:54.066Z,9.23
2018-06-16T17:40:22.243Z,6.95
2018-06-16T17:42:50.312Z,9.80
2018-06-16T17:45:18.375Z,6.08
2018-06-16T17:47:46.481Z,5.20
2018-06-16T17:50:14.811Z,4.62
2018-06-16T17:52:42.910Z,4.87
2018-06-16T17:55:11.103Z,7.72
2018-06-16T17:57:39.266Z,5.35
2018-06-16T18:00:07.543Z,7.47
2018-06-16T18:02:35.694Z,7.30
2018-06-16T18:05:03.845Z,4.47
2018-06-16T18:07:32.016Z,5.65
2018-06-16T18:10:00.098Z,5.85
2018-06-16T18:12:28.199Z,5.80
2018-06-16T18:14:56.264Z,6.03
2018-06-16T18:17:24.363Z,3.92
2018-06-16T18:19:53.304Z,5.03
2018-06-16T18:22:21.411Z,10.45
2018-06-16T18:24:49.540Z,3.50
2018-06-16T18:27:17.612Z,7.17
2018-06-16T18:29:48.990Z,6.83
2018-06-16T18:32:17.258Z,4.47
2018-06-16T18:34:45.566Z,7.15
2018-06-16T18:37:13.660Z,4.03
2018-06-16T18:39:41.893Z,7.42
2018-06-16T18:42:10.607Z,4.60
2018-06-16T18:44:38.871Z,6.25
2018-06-16T18:47:06.943Z,3.55
2018-06-16T18:49:35.069Z,4.37
2018-06-16T18:52:03.151Z,7.35
2018-06-16T18:54:31.346Z,10.38
2018-06-16T18:56:59.416Z,5.30
2018-06-16T18:59:27.508Z,5.65
2018-06-16T19:01:55.675Z,7.10
2018-06-16T19:04:23.767Z,7.83
2018-06-16T19:06:51.942Z,5.92
2018-06-16T19:09:20.042Z,9.18
2018-06-16T19:11:48.123Z,6.37
2018-06-16T19:14:16.362Z,8.63
2018-06-16T19:16:44.428Z,4.25
2018-06-16T19:19:12.515Z,9.78
2018-06-16T19:21:40.563Z,10.50
2018-06-16T19:24:08.625Z,4.00
2018-06-16T19:26:36.802Z,13.15
2018-06-16T19:29:04.964Z,7.05
2018-06-16T19:31:33.113Z,8.73
2018-06-16T19:34:01.167Z,5.85
2018-06-16T19:36:29.226Z,6.35
2018-06-16T19:38:57.304Z,4.97
2018-06-16T19:41:25.526Z,6.83
2018-06-16T19:43:53.598Z,8.53
2018-06-16T19:46:21.691Z,6.85
2018-06-16T19:48:49.947Z,8.77
2018-06-16T19:51:18.057Z,8.23
2018-06-16T19:53:46.102Z,12.13
2018-06-16T19:56:14.171Z,5.47
2018-06-16T19:58:42.283Z,9.80
2018-06-16T20:01:10.361Z,5.87
2018-06-16T20:03:38.440Z,6.83
2018-06-16T20:06:06.506Z,4.57
2018-06-16T20:08:34.578Z,7.65
2018-06-16T20:11:02.651Z,6.47
2018-06-16T20:13:30.731Z,7.83
2018-06-16T20:15:58.995Z,9.50
2018-06-16T20:18:27.060Z,8.97
2018-06-16T20:20:55.286Z,7.73
2018-06-16T20:23:23.425Z,8.87
2018-06-16T20:25:51.530Z,9.70
2018-06-16T20:28:19.669Z,8.20
2018-06-16T20:30:49.564Z,7.87
2018-06-16T20:33:17.742Z,12.10
2018-06-16T20:35:46.085Z,7.97
2018-06-16T20:38:14.203Z,8.97
2018-06-16T20:40:42.363Z,9.70
2018-06-16T20:43:10.478Z,9.47
2018-06-16T20:45:38.727Z,6.00
2018-06-16T20:48:06.945Z,7.07
2018-06-16T20:50:35.387Z,8.00
2018-06-16T20:53:03.442Z,7.50
2018-06-16T20:55:31.616Z,8.73
2018-06-16T20:57:59.700Z,6.30
2018-06-16T21:00:27.789Z,5.77
2018-06-16T21:02:55.875Z,7.40
2018-06-16T21:05:23.982Z,6.87
2018-06-16T21:07:52.106Z,9.27
2018-06-16T21:10:20.192Z,9.47
2018-06-16T21:12:48.285Z,6.23
2018-06-16T21:15:16.355Z,10.68
2018-06-16T21:17:44.451Z,12.43
2018-06-16T21:20:12.548Z,11.63
2018-06-16T21:22:40.780Z,10.63
2018-06-16T21:25:09.327Z,10.07
2018-06-16T21:27:37.418Z,7.73
2018-06-16T21:30:05.680Z,7.70
2018-06-16T21:32:33.868Z,8.77
2018-06-16T21:35:02.069Z,14.67
2018-06-16T21:37:30.083Z,10.00
2018-06-16T21:39:58.269Z,6.43
2018-06-16T21:42:26.516Z,6.23
2018-06-16T21:44:54.608Z,10.73
2018-06-16T21:47:22.788Z,7.60
2018-06-16T21:49:50.874Z,7.53
2018-06-16T21:52:18.975Z,8.40
2018-06-16T21:54:47.126Z,8.27
2018-06-16T21:57:15.211Z,7.23
2018-06-16T21:59:43.294Z,8.08
2018-06-16T22:02:11.418Z,10.23
2018-06-16T22:04:39.480Z,6.13
2018-06-16T22:07:07.659Z,6.10
2018-06-16T22:09:36.186Z,10.00
2018-06-16T22:12:04.284Z,10.67
2018-06-16T22:14:32.460Z,5.53
2018-06-16T22:17:00.526Z,10.03
2018-06-16T22:19:28.610Z,6.07
2018-06-16T22:21:56.779Z,6.63
2018-06-16T22:24:24.865Z,7.17
2018-06-16T22:26:53.022Z,5.63
2018-06-16T22:29:21.102Z,7.40
2018-06-16T22:31:49.174Z,10.33
2018-06-16T22:34:17.281Z,6.20
2018-06-16T22:36:45.334Z,6.80
2018-06-16T22:39:13.510Z,8.77
2018-06-16T22:41:41.584Z,8.08
2018-06-16T22:44:09.875Z,3.77
2018-06-16T22:46:37.998Z,7.40
2018-06-16T22:49:06.310Z,6.10
2018-06-16T22:51:34.393Z,9.17
2018-06-16T22:54:02.498Z,5.97
2018-06-16T22:56:30.566Z,8.83
2018-06-16T22:58:58.434Z,6.87
2018-06-16T23:01:26.552Z,8.93
2018-06-16T23:03:54.612Z,5.43
2018-06-16T23:06:22.679Z,8.27
2018-06-16T23:08:50.751Z,5.40
2018-06-16T23:11:18.838Z,7.47
2018-06-16T23:13:46.898Z,10.83
2018-06-16T23:16:14.966Z,6.93
2018-06-16T23:18:43.020Z,7.93
2018-06-16T23:21:11.134Z,7.93
2018-06-16T23:23:39.206Z,6.03
2018-06-16T23:26:07.335Z,6.03
2018-06-16T23:28:35.396Z,7.75
2018-06-16T23:31:03.476Z,7.80
2018-06-16T23:33:31.570Z,7.65
2018-06-16T23:35:59.646Z,8.20
2018-06-16T23:38:27.935Z,6.57
2018-06-16T23:40:55.994Z,4.90
2018-06-16T23:43:24.074Z,7.43
2018-06-16T23:45:52.211Z,6.83
2018-06-16T23:48:20.274Z,4.30
2018-06-16T23:50:48.382Z,7.17
2018-06-16T23:53:16.454Z,9.77
2018-06-16T23:55:44.582Z,9.27
2018-06-16T23:58:12.698Z,5.67
